createdAt,value
2018-08-22T00:00:04.311Z,101157.38
2018-08-22T00:02:33.542Z,101155.56
2018-08-22T00:05:02.631Z,101152.62
2018-08-22T00:07:31.667Z,101147.77
2018-08-22T00:10:00.667Z,101145.01
2018-08-22T00:12:31.655Z,101150.62
2018-08-22T00:15:00.676Z,101150.03
2018-08-22T00:17:43.496Z,101153.19
2018-08-22T00:20:12.595Z,101141.50
2018-08-22T00:22:41.852Z,101150.08
2018-08-22T00:25:11.800Z,101149.53
2018-08-22T00:27:41.257Z,101144.38
2018-08-22T00:30:10.452Z,101148.66
2018-08-22T00:32:39.553Z,101145.41
2018-08-22T00:35:08.671Z,101140.50
2018-08-22T00:37:37.771Z,101138.84
2018-08-22T00:40:06.869Z,101140.95
2018-08-22T00:42:35.856Z,101138.47
2018-08-22T00:45:06.437Z,101133.31
2018-08-22T00:47:35.657Z,101137.60
2018-08-22T00:50:04.713Z,101136.47
2018-08-22T00:52:33.854Z,101137.23
2018-08-22T00:55:03.166Z,101129.89
2018-08-22T00:57:32.340Z,101132.87
2018-08-22T01:00:01.773Z,101137.47
2018-08-22T01:02:30.716Z,101135.29
2018-08-22T01:04:59.872Z,101132.28
2018-08-22T01:07:28.933Z,101132.41
2018-08-22T01:09:57.928Z,101124.91
2018-08-22T01:12:27.167Z,101129.27
2018-08-22T01:14:56.092Z,101125.86
2018-08-22T01:17:25.162Z,101124.13
2018-08-22T01:19:54.160Z,101125.36
2018-08-22T01:22:23.112Z,101116.34
2018-08-22T01:24:52.189Z,101122.52
2018-08-22T01:27:22.550Z,101121.14
2018-08-22T01:29:53.732Z,101121.41
2018-08-22T01:32:23.089Z,101122.70
2018-08-22T01:34:53.248Z,101118.61
2018-08-22T01:37:22.225Z,101116.41
2018-08-22T01:39:51.215Z,101113.66
2018-08-22T01:42:20.254Z,101110.56
2018-08-22T01:44:49.164Z,101119.09
2018-08-22T01:47:18.257Z,101112.14
2018-08-22T01:49:47.261Z,101113.08
2018-08-22T01:52:16.193Z,101112.66
2018-08-22T01:54:45.411Z,101105.95
2018-08-22T01:57:14.371Z,101107.36
2018-08-22T01:59:43.377Z,101113.64
2018-08-22T02:02:12.240Z,101108.56
2018-08-22T02:04:41.326Z,101102.16
2018-08-22T02:07:10.266Z,101103.81
2018-08-22T02:09:39.300Z,101098.40
2018-08-22T02:12:08.184Z,101100.02
2018-08-22T02:14:37.241Z,101096.74
2018-08-22T02:17:06.303Z,101096.74
2018-08-22T02:19:35.376Z,101101.58
2018-08-22T02:22:04.230Z,101095.81
2018-08-22T02:24:33.633Z,101098.24
2018-08-22T02:27:02.592Z,101098.77
2018-08-22T02:29:31.646Z,101095.19
2018-08-22T02:32:00.681Z,101095.19
2018-08-22T02:34:29.751Z,101086.66
2018-08-22T02:36:58.816Z,101086.55
2018-08-22T02:39:27.868Z,101087.58
2018-08-22T02:41:56.769Z,101080.94
2018-08-22T02:44:25.975Z,101087.12
2018-08-22T02:46:55.009Z,101082.13
2018-08-22T02:49:24.001Z,101080.20
2018-08-22T02:51:52.946Z,101081.27
2018-08-22T02:54:21.967Z,101079.67
2018-08-22T02:56:51.030Z,101076.14
2018-08-22T02:59:20.071Z,101073.38
2018-08-22T03:01:49.160Z,101076.03
2018-08-22T03:04:18.337Z,101073.27
2018-08-22T03:06:47.190Z,101082.34
2018-08-22T03:09:16.605Z,101079.80
2018-08-22T03:11:45.521Z,101075.64
2018-08-22T03:14:14.633Z,101070.48
2018-08-22T03:16:43.652Z,101074.48
2018-08-22T03:19:12.608Z,101079.30
2018-08-22T03:21:41.511Z,101078.42
2018-08-22T03:24:10.533Z,101075.88
2018-08-22T03:26:39.577Z,101074.52
2018-08-22T03:29:08.947Z,101072.44
2018-08-22T03:31:37.802Z,101070.01
2018-08-22T03:34:07.012Z,101069.48
2018-08-22T03:36:35.984Z,101071.42
2018-08-22T03:39:06.276Z,101065.48
2018-08-22T03:41:35.264Z,101063.09
2018-08-22T03:44:04.284Z,101065.80
2018-08-22T03:46:33.376Z,101067.72
2018-08-22T03:49:02.428Z,101071.31
2018-08-22T03:51:31.394Z,101071.01
2018-08-22T03:54:00.399Z,101064.72
2018-08-22T03:56:29.612Z,101058.48
2018-08-22T03:58:58.522Z,101067.15
2018-08-22T04:01:27.531Z,101063.36
2018-08-22T04:03:56.442Z,101061.74
2018-08-22T04:06:25.611Z,101069.80
2018-08-22T04:08:55.133Z,101066.72
2018-08-22T04:11:24.349Z,101059.55
2018-08-22T04:13:53.414Z,101063.33
2018-08-22T04:16:22.530Z,101062.44
2018-08-22T04:18:51.617Z,101060.42
2018-08-22T04:21:20.685Z,101068.86
2018-08-22T04:23:49.657Z,101066.56
2018-08-22T04:26:22.395Z,101066.20
2018-08-22T04:28:51.512Z,101064.79
2018-08-22T04:31:20.571Z,101064.05
2018-08-22T04:33:49.670Z,101058.80
2018-08-22T04:36:18.741Z,101064.05
2018-08-22T04:38:47.817Z,101061.47
2018-08-22T04:41:16.953Z,101061.59
2018-08-22T04:43:46.013Z,101055.48
2018-08-22T04:46:15.145Z,101061.61
2018-08-22T04:48:44.254Z,101060.05
2018-08-22T04:51:13.275Z,101065.06
2018-08-22T04:53:42.433Z,101067.72
2018-08-22T04:56:11.498Z,101064.84
2018-08-22T04:58:40.539Z,101061.16
2018-08-22T05:01:09.483Z,101060.91
2018-08-22T05:03:38.551Z,101055.02
2018-08-22T05:06:07.638Z,101055.05
2018-08-22T05:08:36.766Z,101058.13
2018-08-22T05:11:05.951Z,101066.52
2018-08-22T05:13:34.997Z,101065.91
2018-08-22T05:16:03.988Z,101059.12
2018-08-22T05:18:33.015Z,101060.43
2018-08-22T05:21:02.213Z,101059.53
2018-08-22T05:23:31.364Z,101061.91
2018-08-22T05:26:01.578Z,101055.09
2018-08-22T05:28:30.607Z,101054.94
2018-08-22T05:30:59.915Z,101051.50
2018-08-22T05:33:28.934Z,101052.86
2018-08-22T05:35:57.962Z,101048.98
2018-08-22T05:38:26.976Z,101047.03
2018-08-22T05:40:56.062Z,101050.23
2018-08-22T05:43:25.383Z,101048.84
2018-08-22T05:45:54.513Z,101053.48
2018-08-22T05:48:23.662Z,101048.46
2018-08-22T05:50:52.815Z,101048.62
2018-08-22T05:53:21.928Z,101052.37
2018-08-22T05:55:50.966Z,101054.27
2018-08-22T05:58:20.091Z,101049.11
2018-08-22T06:00:49.842Z,101045.01
2018-08-22T06:03:18.972Z,101044.91
2018-08-22T06:05:48.017Z,101052.93
2018-08-22T06:08:17.265Z,101043.22
2018-08-22T06:10:46.303Z,101042.23
2018-08-22T06:13:15.329Z,101045.03
2018-08-22T06:15:44.351Z,101048.44
2018-08-22T06:18:13.490Z,101045.59
2018-08-22T06:20:42.820Z,101050.08
2018-08-22T06:23:11.950Z,101052.67
2018-08-22T06:25:41.095Z,101047.35
2018-08-22T06:28:10.181Z,101051.20
2018-08-22T06:30:39.457Z,101051.75
2018-08-22T06:33:08.794Z,101045.42
2018-08-22T06:35:38.071Z,101047.52
2018-08-22T06:38:07.210Z,101044.86
2018-08-22T06:40:36.266Z,101033.77
2018-08-22T06:43:05.290Z,101037.63
2018-08-22T06:45:34.825Z,101028.27
2018-08-22T06:48:04.036Z,101037.58
2018-08-22T06:50:33.158Z,101028.05
2018-08-22T06:53:02.762Z,101029.50
2018-08-22T06:55:31.952Z,101030.11
2018-08-22T06:58:01.085Z,101022.20
2018-08-22T07:00:30.201Z,101023.03
2018-08-22T07:02:59.319Z,101025.20
2018-08-22T07:05:28.428Z,101022.69
2018-08-22T07:07:58.187Z,101017.25
2018-08-22T07:10:27.450Z,101009.32
2018-08-22T07:12:56.601Z,101007.67
2018-08-22T07:15:25.969Z,101005.83
2018-08-22T07:17:55.488Z,101010.87
2018-08-22T07:20:24.652Z,101012.61
2018-08-22T07:22:54.289Z,101018.72
2018-08-22T07:25:23.413Z,101019.86
2018-08-22T07:27:52.513Z,101015.80
2018-08-22T07:30:22.206Z,101015.27
2018-08-22T07:32:51.334Z,101012.52
2018-08-22T07:35:20.413Z,101015.77
2018-08-22T07:37:49.613Z,101018.78
2018-08-22T07:40:19.144Z,101022.54
2018-08-22T07:42:48.258Z,101024.66
2018-08-22T07:45:18.345Z,101015.83
2018-08-22T07:47:47.875Z,101015.23
2018-08-22T07:50:16.982Z,101012.17
2018-08-22T07:52:51.348Z,101013.16
2018-08-22T07:55:20.675Z,101011.19
2018-08-22T07:57:52.990Z,101015.52
2018-08-22T08:00:22.133Z,101021.20
2018-08-22T08:02:51.466Z,101020.08
2018-08-22T08:05:21.164Z,101013.17
2018-08-22T08:07:50.267Z,101015.29
2018-08-22T08:10:24.401Z,101016.28
2018-08-22T08:12:53.871Z,101012.11
2018-08-22T08:15:23.383Z,101010.13
2018-08-22T08:17:52.371Z,101008.38
2018-08-22T08:20:21.583Z,101009.09
2018-08-22T08:22:50.773Z,101010.27
2018-08-22T08:25:19.993Z,101013.13
2018-08-22T08:27:49.071Z,101013.53
2018-08-22T08:30:18.678Z,101010.77
2018-08-22T08:32:47.798Z,101012.61
2018-08-22T08:35:16.955Z,101012.41
2018-08-22T08:37:46.158Z,101008.18
2018-08-22T08:40:15.262Z,101000.55
2018-08-22T08:42:46.080Z,100998.43
2018-08-22T08:45:15.189Z,100997.98
2018-08-22T08:47:44.476Z,100999.85
2018-08-22T08:50:13.864Z,101001.34
2018-08-22T08:52:43.031Z,100995.98
2018-08-22T08:55:12.081Z,100988.73
2018-08-22T08:57:41.225Z,100987.72
2018-08-22T09:00:10.473Z,100984.55
2018-08-22T09:02:39.544Z,100979.87
2018-08-22T09:05:08.812Z,100975.86
2018-08-22T09:07:37.891Z,100983.90
2018-08-22T09:10:07.409Z,100974.42
2018-08-22T09:12:39.486Z,100965.08
2018-08-22T09:15:08.630Z,100968.27
2018-08-22T09:17:37.757Z,100971.28
2018-08-22T09:20:07.658Z,100973.11
2018-08-22T09:22:37.010Z,100971.69
2018-08-22T09:25:06.199Z,100959.64
2018-08-22T09:27:38.817Z,100955.83
2018-08-22T09:30:07.960Z,100949.98
2018-08-22T09:32:37.018Z,100955.17
2018-08-22T09:35:06.153Z,100953.65
2018-08-22T09:37:44.171Z,100951.98
2018-08-22T09:40:13.515Z,100949.30
2018-08-22T09:42:42.614Z,100946.19
2018-08-22T09:45:11.790Z,100945.11
2018-08-22T09:47:40.890Z,100943.08
2018-08-22T09:50:10.205Z,100939.76
2018-08-22T09:52:39.450Z,100944.56
2018-08-22T09:55:08.695Z,100935.22
2018-08-22T09:57:37.786Z,100932.41
2018-08-22T10:00:07.533Z,100931.07
2018-08-22T10:02:36.681Z,100927.69
2018-08-22T10:05:05.915Z,100926.41
2018-08-22T10:07:35.052Z,100926.22
2018-08-22T10:10:04.449Z,100916.55
2018-08-22T10:12:34.357Z,100919.03
2018-08-22T10:15:03.771Z,100912.59
2018-08-22T10:17:32.901Z,100912.03
2018-08-22T10:20:01.979Z,100904.87
2018-08-22T10:22:31.021Z,100899.58
2018-08-22T10:25:00.841Z,100901.41
2018-08-22T10:27:30.022Z,100892.64
2018-08-22T10:29:59.184Z,100901.31
2018-08-22T10:32:28.279Z,100892.13
2018-08-22T10:34:57.483Z,100889.45
2018-08-22T10:37:26.715Z,100886.80
2018-08-22T10:39:55.886Z,100889.02
2018-08-22T10:42:25.113Z,100891.73
2018-08-22T10:44:54.302Z,100890.75
2018-08-22T10:47:23.498Z,100888.67
2018-08-22T10:49:52.708Z,100882.52
2018-08-22T10:52:21.751Z,100884.36
2018-08-22T10:54:50.937Z,100888.14
2018-08-22T10:57:19.996Z,100879.44
2018-08-22T10:59:49.070Z,100882.30
2018-08-22T11:02:18.233Z,100878.16
2018-08-22T11:04:47.321Z,100880.31
2018-08-22T11:07:17.101Z,100880.38
2018-08-22T11:09:46.226Z,100878.55
2018-08-22T11:12:15.301Z,100873.11
2018-08-22T11:14:44.535Z,100870.00
2018-08-22T11:17:13.675Z,100875.75
2018-08-22T11:19:55.753Z,100876.14
2018-08-22T11:22:35.695Z,100875.83
2018-08-22T11:25:15.564Z,100867.09
2018-08-22T11:27:58.733Z,100858.55
2018-08-22T11:30:38.613Z,100863.87
2018-08-22T11:33:18.579Z,100857.52
2018-08-22T11:35:46.306Z,100860.79
2018-08-22T11:38:15.904Z,100856.59
2018-08-22T11:40:45.120Z,100854.91
2018-08-22T11:43:14.249Z,100849.94
2018-08-22T11:45:43.661Z,100847.78
2018-08-22T11:48:20.521Z,100844.56
2018-08-22T11:50:49.617Z,100848.21
2018-08-22T11:53:18.808Z,100841.98
2018-08-22T11:55:48.385Z,100840.72
2018-08-22T11:58:25.333Z,100839.22
2018-08-22T12:00:54.433Z,100835.55
2018-08-22T12:03:23.466Z,100830.16
2018-08-22T12:05:52.570Z,100831.80
2018-08-22T12:08:33.601Z,100833.95
2018-08-22T12:11:02.860Z,100833.81
2018-08-22T12:13:32.313Z,100829.19
2018-08-22T12:16:01.806Z,100833.13
2018-08-22T12:18:30.987Z,100825.59
2018-08-22T12:21:00.425Z,100817.14
2018-08-22T12:23:29.567Z,100814.25
2018-08-22T12:25:58.769Z,100819.56
2018-08-22T12:28:32.225Z,100803.54
2018-08-22T12:31:01.486Z,100812.28
2018-08-22T12:33:30.705Z,100801.33
2018-08-22T12:35:59.705Z,100804.73
2018-08-22T12:38:28.881Z,100809.86
2018-08-22T12:40:58.031Z,100801.27
2018-08-22T12:43:27.576Z,100800.22
2018-08-22T12:45:56.847Z,100807.73
2018-08-22T12:48:40.093Z,100801.67
2018-08-22T12:51:09.534Z,100793.72
2018-08-22T12:53:38.697Z,100795.01
2018-08-22T12:56:08.243Z,100789.52
2018-08-22T12:58:45.589Z,100792.46
2018-08-22T13:01:14.851Z,100793.95
2018-08-22T13:03:44.157Z,100793.95
2018-08-22T13:06:13.477Z,100794.55
2018-08-22T13:08:50.447Z,100780.34
2018-08-22T13:11:19.938Z,100773.20
2018-08-22T13:13:49.059Z,100771.14
2018-08-22T13:16:18.134Z,100769.67
2018-08-22T13:19:02.525Z,100766.31
2018-08-22T13:21:32.040Z,100758.09
2018-08-22T13:24:01.309Z,100765.97
2018-08-22T13:26:30.334Z,100759.14
2018-08-22T13:29:42.888Z,100757.07
2018-08-22T13:32:12.133Z,100759.50
2018-08-22T13:34:41.217Z,100758.94
2018-08-22T13:37:10.251Z,100760.77
2018-08-22T13:39:47.717Z,100757.86
2018-08-22T13:42:17.011Z,100755.70
2018-08-22T13:44:46.082Z,100744.58
2018-08-22T13:47:15.273Z,100731.98
2018-08-22T13:49:45.287Z,100735.81
2018-08-22T13:52:14.447Z,100739.50
2018-08-22T13:54:43.960Z,100741.06
2018-08-22T13:57:13.103Z,100738.06
2018-08-22T13:59:45.412Z,100738.34
2018-08-22T14:02:14.482Z,100737.53
2018-08-22T14:04:43.489Z,100734.63
2018-08-22T14:07:12.653Z,100728.00
2018-08-22T14:09:49.509Z,100729.54
2018-08-22T14:12:18.510Z,100729.52
2018-08-22T14:14:47.670Z,100727.14
2018-08-22T14:17:16.739Z,100730.81
2018-08-22T14:19:55.380Z,100724.14
2018-08-22T14:22:24.476Z,100728.95
2018-08-22T14:24:53.505Z,100735.25
2018-08-22T14:27:22.633Z,100729.74
2018-08-22T14:30:05.870Z,100720.19
2018-08-22T14:32:35.467Z,100718.13
2018-08-22T14:35:04.756Z,100718.70
2018-08-22T14:37:33.780Z,100716.88
2018-08-22T14:40:05.006Z,100720.98
2018-08-22T14:42:34.245Z,100712.33
2018-08-22T14:45:05.021Z,100715.03
2018-08-22T14:47:34.142Z,100716.03
2018-08-22T14:50:07.422Z,100724.13
2018-08-22T14:52:37.463Z,100710.53
2018-08-22T14:55:06.650Z,100708.30
2018-08-22T14:57:35.670Z,100706.09
2018-08-22T15:00:04.838Z,100710.48
2018-08-22T15:02:34.110Z,100698.30
2018-08-22T15:05:03.198Z,100707.36
2018-08-22T15:07:32.216Z,100708.66
2018-08-22T15:10:13.970Z,100704.44
2018-08-22T15:12:43.190Z,100705.55
2018-08-22T15:15:12.333Z,100697.69
2018-08-22T15:17:45.921Z,100704.24
2018-08-22T15:20:15.091Z,100702.41
2018-08-22T15:22:44.360Z,100697.24
2018-08-22T15:25:14.261Z,100701.14
2018-08-22T15:27:43.857Z,100696.64
2018-08-22T15:30:13.061Z,100704.47
2018-08-22T15:32:42.140Z,100699.47
2018-08-22T15:35:11.352Z,100710.49
2018-08-22T15:37:40.776Z,100700.61
2018-08-22T15:40:10.298Z,100704.67
2018-08-22T15:42:39.276Z,100696.47
2018-08-22T15:45:08.429Z,100692.61
2018-08-22T15:47:37.670Z,100696.82
2018-08-22T15:50:07.457Z,100690.91
2018-08-22T15:52:36.622Z,100690.05
2018-08-22T15:55:13.810Z,100692.67
2018-08-22T15:57:54.980Z,100697.39
2018-08-22T16:00:45.533Z,100686.52
2018-08-22T16:03:14.771Z,100687.57
2018-08-22T16:05:44.963Z,100680.44
2018-08-22T16:08:15.206Z,100680.89
2018-08-22T16:10:44.517Z,100669.02
2018-08-22T16:13:18.906Z,100683.72
2018-08-22T16:15:49.845Z,100677.37
2018-08-22T16:18:19.087Z,100671.95
2018-08-22T16:20:54.491Z,100670.38
2018-08-22T16:23:26.633Z,100675.36
2018-08-22T16:25:57.204Z,100667.88
2018-08-22T16:28:27.209Z,100665.08
2018-08-22T16:30:58.073Z,100664.12
2018-08-22T16:33:27.286Z,100670.67
2018-08-22T16:35:56.459Z,100672.06
2018-08-22T16:38:25.853Z,100668.78
2018-08-22T16:40:55.117Z,100674.31
2018-08-22T16:43:40.282Z,100674.91
2018-08-22T16:46:11.386Z,100665.98
2018-08-22T16:48:41.272Z,100671.84
2018-08-22T16:51:10.382Z,100665.88
2018-08-22T16:53:39.833Z,100663.27
2018-08-22T16:56:09.114Z,100657.10
2018-08-22T16:58:38.211Z,100658.53
2018-08-22T17:01:07.287Z,100671.64
2018-08-22T17:03:36.388Z,100660.11
2018-08-22T17:06:09.604Z,100672.33
2018-08-22T17:08:38.660Z,100669.67
2018-08-22T17:11:08.702Z,100671.39
2018-08-22T17:13:45.696Z,100664.98
2018-08-22T17:16:14.870Z,100676.02
2018-08-22T17:18:44.092Z,100669.06
2018-08-22T17:21:13.274Z,100669.33
2018-08-22T17:23:42.970Z,100670.72
2018-08-22T17:26:13.174Z,100678.53
2018-08-22T17:28:44.085Z,100680.80
2018-08-22T17:31:14.917Z,100678.50
2018-08-22T17:33:48.555Z,100677.40
2018-08-22T17:36:18.228Z,100677.20
2018-08-22T17:38:48.920Z,100677.47
2018-08-22T17:41:20.134Z,100681.31
2018-08-22T17:44:13.149Z,100679.58
2018-08-22T17:46:51.347Z,100677.05
2018-08-22T17:49:20.939Z,100683.56
2018-08-22T17:52:04.812Z,100684.30
2018-08-22T17:54:34.081Z,100686.78
2018-08-22T17:57:12.856Z,100687.85
2018-08-22T17:59:43.024Z,100690.75
2018-08-22T18:02:12.716Z,100689.70
2018-08-22T18:04:56.798Z,100695.78
2018-08-22T18:07:25.902Z,100689.19
2018-08-22T18:09:55.787Z,100694.92
2018-08-22T18:12:25.950Z,100695.89
2018-08-22T18:14:59.267Z,100701.77
2018-08-22T18:17:28.537Z,100700.54
2018-08-22T18:19:57.768Z,100695.73
2018-08-22T18:22:31.378Z,100696.29
2018-08-22T18:25:00.566Z,100698.53
2018-08-22T18:27:29.877Z,100703.54
2018-08-22T18:29:58.937Z,100711.16
2018-08-22T18:32:31.300Z,100703.30
2018-08-22T18:35:07.348Z,100709.60
2018-08-22T18:37:36.548Z,100711.67
2018-08-22T18:40:12.225Z,100718.82
2018-08-22T18:42:41.645Z,100721.74
2018-08-22T18:45:10.856Z,100723.84
2018-08-22T18:47:40.190Z,100724.68
2018-08-22T18:50:09.287Z,100730.07
2018-08-22T18:52:38.415Z,100732.53
2018-08-22T18:55:07.553Z,100735.33
2018-08-22T18:57:36.709Z,100738.23
2018-08-22T19:00:08.530Z,100743.83
2018-08-22T19:02:37.727Z,100744.80
2018-08-22T19:05:40.685Z,100748.75
2018-08-22T19:08:13.201Z,100744.70
2018-08-22T19:10:43.572Z,100747.95
2018-08-22T19:13:24.004Z,100748.87
2018-08-22T19:15:55.352Z,100752.40
2018-08-22T19:18:24.737Z,100753.13
2018-08-22T19:20:56.013Z,100760.52
2018-08-22T19:23:25.370Z,100757.81
2018-08-22T19:25:55.108Z,100759.58
2018-08-22T19:28:24.353Z,100758.80
2018-08-22T19:30:53.503Z,100760.80
2018-08-22T19:33:23.997Z,100763.18
2018-08-22T19:35:53.222Z,100763.57
2018-08-22T19:38:25.521Z,100763.06
2018-08-22T19:40:54.722Z,100765.28
2018-08-22T19:43:24.082Z,100762.03
2018-08-22T19:45:53.327Z,100762.34
2018-08-22T19:48:22.710Z,100763.52
2018-08-22T19:50:52.122Z,100764.45
2018-08-22T19:53:21.880Z,100770.98
2018-08-22T19:55:51.132Z,100769.64
2018-08-22T19:58:28.470Z,100770.02
2018-08-22T20:00:59.081Z,100769.84
2018-08-22T20:03:32.315Z,100769.81
2018-08-22T20:06:01.478Z,100771.73
2018-08-22T20:08:37.473Z,100775.89
2018-08-22T20:11:07.309Z,100774.31
2018-08-22T20:13:49.680Z,100772.13
2018-08-22T20:16:20.154Z,100771.73
2018-08-22T20:18:50.943Z,100777.84
2018-08-22T20:21:26.917Z,100781.48
2018-08-22T20:23:58.084Z,100775.95
2018-08-22T20:26:27.965Z,100783.49
2018-08-22T20:28:58.311Z,100783.31
2018-08-22T20:31:27.546Z,100782.77
2018-08-22T20:34:08.184Z,100784.68
2018-08-22T20:36:37.397Z,100788.34
2018-08-22T20:39:10.645Z,100787.88
2018-08-22T20:41:41.364Z,100785.45
2018-08-22T20:44:19.339Z,100785.50
2018-08-22T20:46:49.775Z,100783.04
2018-08-22T20:49:20.265Z,100783.61
2018-08-22T20:51:50.101Z,100789.41
2018-08-22T20:54:23.109Z,100790.00
2018-08-22T20:56:57.344Z,100787.34
2018-08-22T20:59:26.515Z,100782.74
2018-08-22T21:02:10.797Z,100788.77
2018-08-22T21:04:40.018Z,100788.53
2018-08-22T21:07:09.225Z,100789.33
2018-08-22T21:09:38.409Z,100783.11
2018-08-22T21:12:07.752Z,100792.94
2018-08-22T21:14:36.928Z,100798.38
2018-08-22T21:17:06.337Z,100793.56
2018-08-22T21:19:35.545Z,100796.33
2018-08-22T21:22:09.695Z,100800.47
2018-08-22T21:24:39.055Z,100795.05
2018-08-22T21:27:08.270Z,100793.15
2018-08-22T21:29:37.443Z,100798.59
2018-08-22T21:32:06.837Z,100798.59
2018-08-22T21:34:36.281Z,100796.48
2018-08-22T21:37:15.020Z,100796.26
2018-08-22T21:39:44.097Z,100798.19
2018-08-22T21:42:13.248Z,100800.14
2018-08-22T21:44:43.494Z,100795.26
2018-08-22T21:47:12.773Z,100797.78
2018-08-22T21:49:42.038Z,100799.18
2018-08-22T21:52:11.474Z,100799.66
2018-08-22T21:54:41.149Z,100802.95
2018-08-22T21:57:10.267Z,100799.95
2018-08-22T21:59:39.411Z,100801.61
2018-08-22T22:02:09.652Z,100802.17
2018-08-22T22:04:42.030Z,100801.14
2018-08-22T22:07:12.289Z,100800.34
2018-08-22T22:09:41.333Z,100800.91
2018-08-22T22:12:15.379Z,100801.23
2018-08-22T22:14:45.631Z,100796.33
2018-08-22T22:17:14.738Z,100799.89
2018-08-22T22:19:43.973Z,100803.45
2018-08-22T22:22:13.058Z,100798.85
2018-08-22T22:24:52.785Z,100795.58
2018-08-22T22:27:22.105Z,100808.16
2018-08-22T22:29:56.783Z,100807.65
2018-08-22T22:32:25.911Z,100807.94
2018-08-22T22:34:54.985Z,100805.21
2018-08-22T22:37:24.093Z,100809.58
2018-08-22T22:39:53.247Z,100811.19
2018-08-22T22:42:30.461Z,100804.13
2018-08-22T22:45:00.546Z,100809.27
2018-08-22T22:47:30.893Z,100807.36
2018-08-22T22:50:00.886Z,100809.27
2018-08-22T22:52:38.323Z,100805.48
2018-08-22T22:55:08.453Z,100812.28
2018-08-22T22:57:38.753Z,100807.38
2018-08-22T23:00:11.137Z,100808.14
2018-08-22T23:02:40.580Z,100803.39
2018-08-22T23:05:10.085Z,100804.95
2018-08-22T23:07:40.349Z,100804.34
2018-08-22T23:10:11.881Z,100808.04
2018-08-22T23:12:43.305Z,100803.88
2018-08-22T23:15:14.355Z,100803.00
2018-08-22T23:17:43.960Z,100801.12
2018-08-22T23:20:23.434Z,100794.31
2018-08-22T23:22:52.484Z,100793.11
2018-08-22T23:25:25.565Z,100798.98
2018-08-22T23:27:54.776Z,100789.15
2018-08-22T23:30:28.909Z,100793.23
2018-08-22T23:32:58.086Z,100794.66
2018-08-22T23:35:29.233Z,100795.02
2018-08-22T23:37:59.451Z,100791.47
2018-08-22T23:40:29.749Z,100800.08
2018-08-22T23:42:59.169Z,100806.09
2018-08-22T23:45:28.776Z,100804.04
2018-08-22T23:47:57.854Z,100802.52
2018-08-22T23:50:36.823Z,100799.89
2018-08-22T23:53:05.897Z,100802.44
2018-08-22T23:55:34.871Z,100798.91
2018-08-22T23:58:04.274Z,100798.08
